Time;durP1;ratioP1;P1;durP2;ratioP2;P2;SDS_P1;SDS_P2;PMS_P1;PMS_P2;Temp;Humidity;BMP_temperature;BMP_pressure;BME280_temperature;BME280_humidity;BME280_pressure;Samples;Min_cycle;Max_cycle;Signal;HPM_P1;HPM_P2
2023/01/09 00:01:02;;;;;;;1999.90;999.90;;;;;;;7.12;100.00;99333.50;10393607;28;20060;-64
2023/01/09 00:06:04;;;;;;;1999.90;999.90;;;;;;;7.08;100.00;99324.22;10369941;28;20057;-63
2023/01/09 00:11:07;;;;;;;1999.90;999.90;;;;;;;7.23;100.00;99330.19;10377180;28;20073;-63
2023/01/09 00:16:10;;;;;;;1999.90;999.90;;;;;;;7.59;100.00;99320.81;10342346;28;20077;-63
2023/01/09 00:21:13;;;;;;;1999.90;999.90;;;;;;;7.53;100.00;99319.47;10348546;28;20053;-63
2023/01/09 00:26:17;;;;;;;1999.90;999.90;;;;;;;7.25;100.00;99318.72;10380742;28;20129;-63
2023/01/09 00:31:20;;;;;;;1999.90;999.90;;;;;;;7.36;100.00;99311.94;10377673;28;20050;-64
2023/01/09 00:36:22;;;;;;;1999.90;999.90;;;;;;;6.94;100.00;99316.50;10374315;28;20100;-64
2023/01/09 00:41:39;;;;;;;1999.90;999.90;;;;;;;7.02;100.00;99322.84;10378435;28;20076;-64
2023/01/09 00:46:45;;;;;;;1999.90;999.90;;;;;;;6.88;100.00;99321.16;10380000;28;20123;-64
2023/01/09 00:51:48;;;;;;;1999.90;999.90;;;;;;;6.68;100.00;99329.44;10373622;28;20057;-63
2023/01/09 00:56:50;;;;;;;1999.90;999.90;;;;;;;6.53;100.00;99330.44;10338367;28;20054;-64
2023/01/09 01:01:53;;;;;;;1999.90;999.90;;;;;;;6.45;100.00;99330.91;10338913;28;20061;-63
2023/01/09 01:12:16;;;;;;;1999.90;999.90;;;;;;;6.25;100.00;99364.19;10376820;28;20474;-64
2023/01/09 01:17:18;;;;;;;1999.90;999.90;;;;;;;6.02;100.00;99359.56;10378089;28;20050;-64
2023/01/09 01:22:21;;;;;;;1999.90;999.90;;;;;;;6.18;100.00;99362.91;10378436;28;20061;-63
2023/01/09 01:27:23;;;;;;;1999.90;999.90;;;;;;;6.08;100.00;99364.41;10378424;28;20050;-63
2023/01/09 01:32:26;;;;;;;1999.90;999.90;;;;;;;6.08;100.00;99364.41;10368853;28;20050;-63
2023/01/09 01:37:28;;;;;;;1999.90;999.90;;;;;;;6.00;100.00;99364.03;10337437;28;20050;-64
2023/01/09 01:42:30;;;;;;;1999.90;999.90;;;;;;;5.86;100.00;99359.66;10337360;28;20050;-63
2023/01/09 01:47:41;;;;;;;1999.90;999.90;;;;;;;5.84;100.00;99364.94;10367691;28;20062;-64
2023/01/09 01:52:50;;;;;;;1999.90;999.90;;;;;;;5.78;100.00;99383.47;10352396;28;20050;-64
2023/01/09 01:57:56;;;;;;;1999.90;999.90;;;;;;;5.97;100.00;99385.00;10336026;28;20089;-63
2023/01/09 02:03:00;;;;;;;1999.90;999.90;;;;;;;5.69;100.00;99384.03;10367486;28;20409;-64
2023/01/09 02:08:03;;;;;;;1999.90;999.90;;;;;;;5.61;100.00;99374.09;10336867;28;20125;-63
2023/01/09 02:13:06;;;;;;;1999.90;999.90;;;;;;;5.84;100.00;99372.72;10388640;28;20493;-63
2023/01/09 02:18:08;;;;;;;1999.90;999.90;;;;;;;5.85;100.00;99381.34;10381245;22;20045;-66
2023/01/09 02:23:41;;;;;;;1999.90;999.90;;;;;;;5.54;100.00;99391.81;10336115;28;20046;-66
2023/01/09 02:29:15;;;;;;;1999.90;999.90;;;;;;;5.80;100.00;99391.19;10334017;28;20109;-66
2023/01/09 02:34:49;;;;;;;1999.90;999.90;;;;;;;5.51;100.00;99401.53;10333991;28;20073;-67
2023/01/09 02:40:05;;;;;;;1999.90;999.90;;;;;;;5.58;100.00;99400.25;10357017;28;20100;-66
2023/01/09 02:45:07;;;;;;;1999.90;999.90;;;;;;;5.48;100.00;99399.97;10374959;28;20046;-66
2023/01/09 02:50:18;;;;;;;1999.90;999.90;;;;;;;5.59;100.00;99392.38;10375404;28;20054;-66
2023/01/09 02:55:54;;;;;;;1999.90;999.90;;;;;;;5.36;100.00;99400.66;10340104;28;20452;-66
2023/01/09 03:01:05;;;;;;;1999.90;999.90;;;;;;;5.28;100.00;99403.72;10333020;28;20082;-66
2023/01/09 03:06:45;;;;;;;1999.90;999.90;;;;;;;5.47;100.00;99397.47;10338992;28;20462;-66
2023/01/09 03:11:51;;;;;;;1999.90;999.90;;;;;;;5.34;100.00;99390.38;10340558;28;20054;-66
2023/01/09 03:16:59;;;;;;;1999.90;999.90;;;;;;;5.47;100.00;99385.31;10349281;28;20053;-66
2023/01/09 03:22:01;;;;;;;1999.90;999.90;;;;;;;5.35;100.00;99391.22;10348653;28;20058;-67
2023/01/09 03:27:06;;;;;;;1999.90;999.90;;;;;;;5.06;100.00;99390.28;10340670;28;20041;-66
2023/01/09 03:32:09;;;;;;;1999.90;999.90;;;;;;;5.14;100.00;99381.13;10365065;28;20061;-67
2023/01/09 03:37:11;;;;;;;1999.90;999.90;;;;;;;4.78;100.00;99391.88;10373877;28;20053;-66
2023/01/09 03:42:13;;;;;;;1999.90;999.90;;;;;;;5.05;100.00;99399.03;10373402;28;20057;-66
2023/01/09 03:47:16;;;;;;;1999.90;999.90;;;;;;;4.88;100.00;99390.44;10300932;28;20051;-66
2023/01/09 03:52:18;;;;;;;1999.90;999.90;;;;;;;4.76;100.00;99398.91;10328789;28;20053;-66
2023/01/09 03:57:23;;;;;;;1999.90;999.90;;;;;;;4.82;100.00;99408.91;10341371;28;20097;-66
2023/01/09 04:02:25;;;;;;;1999.90;999.90;;;;;;;4.73;100.00;99407.66;10364532;28;20464;-67
2023/01/09 04:07:27;;;;;;;1999.90;999.90;;;;;;;4.71;100.00;99408.66;10381549;28;20405;-66
2023/01/09 04:12:30;;;;;;;1999.90;999.90;;;;;;;4.81;100.00;99415.03;10367111;28;20061;-66
2023/01/09 04:17:32;;;;;;;1999.90;999.90;;;;;;;4.71;100.00;99409.53;10371083;28;20049;-67
2023/01/09 04:22:34;;;;;;;1999.90;999.90;;;;;;;4.75;100.00;99412.78;10380363;28;20128;-66
2023/01/09 04:27:37;;;;;;;1999.90;999.90;;;;;;;4.79;100.00;99422.91;10380875;28;20046;-66
2023/01/09 04:32:39;;;;;;;1999.90;999.90;;;;;;;4.64;100.00;99414.22;10348371;28;20050;-67
2023/01/09 04:37:42;;;;;;;1999.90;999.90;;;;;;;4.94;100.00;99416.03;10338092;28;20405;-66
2023/01/09 04:42:45;;;;;;;1999.90;999.90;;;;;;;5.02;100.00;99419.00;10365270;28;20090;-66
2023/01/09 04:47:47;;;;;;;1999.90;999.90;;;;;;;4.96;100.00;99427.16;10362703;28;20118;-66
2023/01/09 04:52:50;;;;;;;1999.90;999.90;;;;;;;4.99;100.00;99426.97;10363735;28;20489;-66
2023/01/09 04:57:52;;;;;;;1999.90;999.90;;;;;;;4.87;100.00;99417.28;10342712;28;20046;-66
2023/01/09 05:02:55;;;;;;;1999.90;999.90;;;;;;;5.04;100.00;99411.13;10379453;28;20098;-66
2023/01/09 05:07:58;;;;;;;1999.90;999.90;;;;;;;4.82;100.00;99420.16;10378645;28;20061;-66
2023/01/09 05:13:00;;;;;;;1999.90;999.90;;;;;;;5.08;100.00;99411.78;10373487;28;20050;-66
2023/01/09 05:18:03;;;;;;;1999.90;999.90;;;;;;;5.06;100.00;99417.09;10378616;28;20042;-66
2023/01/09 05:23:05;;;;;;;1999.90;999.90;;;;;;;5.20;100.00;99421.50;10378713;28;20108;-66
2023/01/09 05:28:07;;;;;;;1999.90;999.90;;;;;;;5.24;100.00;99422.16;10375144;28;20042;-66
2023/01/09 05:33:10;;;;;;;1999.90;999.90;;;;;;;5.22;100.00;99419.63;10360760;28;20054;-66
2023/01/09 05:38:12;;;;;;;1999.90;999.90;;;;;;;5.10;100.00;99409.97;10337071;28;20054;-66
2023/01/09 05:43:14;;;;;;;1999.90;999.90;;;;;;;5.14;100.00;99422.66;10337445;28;20050;-66
2023/01/09 05:48:17;;;;;;;1999.90;999.90;;;;;;;5.13;100.00;99417.59;10353952;28;20093;-67
2023/01/09 05:53:19;;;;;;;1999.90;999.90;;;;;;;5.18;100.00;99403.41;10359443;28;20058;-67
2023/01/09 05:58:21;;;;;;;1999.90;999.90;;;;;;;5.30;100.00;99412.25;10357497;28;20104;-67
2023/01/09 06:03:23;;;;;;;1999.90;999.90;;;;;;;5.39;100.00;99400.50;10376532;28;20408;-66
2023/01/09 06:08:26;;;;;;;1999.90;999.90;;;;;;;5.51;100.00;99398.94;10351493;28;20516;-66
2023/01/09 06:13:28;;;;;;;1999.90;999.90;;;;;;;5.57;100.00;99408.97;10334248;28;20050;-66
2023/01/09 06:18:31;;;;;;;1999.90;999.90;;;;;;;5.57;100.00;99401.19;10335768;28;20054;-66
2023/01/09 06:23:33;;;;;;;1999.90;999.90;;;;;;;5.55;100.00;99403.03;10368093;28;20374;-67
2023/01/09 06:28:35;;;;;;;1999.90;999.90;;;;;;;5.80;100.00;99405.03;10343553;28;20539;-66
2023/01/09 06:33:38;;;;;;;1999.90;999.90;;;;;;;5.69;100.00;99392.66;10334491;28;20054;-66
2023/01/09 06:38:40;;;;;;;1999.90;999.90;;;;;;;5.71;100.00;99403.78;10350273;28;20039;-66
2023/01/09 06:43:42;;;;;;;1999.90;999.90;;;;;;;5.88;100.00;99394.97;10335159;28;20054;-66
2023/01/09 06:48:45;;;;;;;1999.90;999.90;;;;;;;5.91;100.00;99386.19;10370927;28;20116;-66
2023/01/09 06:53:47;;;;;;;1999.90;999.90;;;;;;;5.97;100.00;99398.00;10353530;28;20050;-66
2023/01/09 06:58:49;;;;;;;1999.90;999.90;;;;;;;5.86;100.00;99399.44;10334001;28;20064;-67
2023/01/09 07:03:52;;;;;;;1999.90;999.90;;;;;;;5.93;100.00;99398.16;10334608;28;20054;-66
2023/01/09 07:08:54;;;;;;;1999.90;999.90;;;;;;;5.82;100.00;99399.75;10355953;28;20050;-66
2023/01/09 07:13:56;;;;;;;1999.90;999.90;;;;;;;5.96;100.00;99386.78;10351509;28;20050;-66
2023/01/09 07:18:59;;;;;;;1999.90;999.90;;;;;;;6.02;100.00;99380.34;10333501;28;20054;-66
2023/01/09 07:24:02;;;;;;;1999.90;999.90;;;;;;;6.04;100.00;99375.91;10362055;28;20441;-66
2023/01/09 07:29:04;;;;;;;1999.90;999.90;;;;;;;6.05;100.00;99388.81;10362535;28;20050;-66
2023/01/09 07:34:06;;;;;;;1999.90;999.90;;;;;;;5.85;100.00;99408.19;10373063;28;20056;-67
2023/01/09 07:39:09;;;;;;;1999.90;999.90;;;;;;;6.01;100.00;99412.47;10374357;28;20046;-67
2023/01/09 07:44:11;;;;;;;1999.90;999.90;;;;;;;6.06;100.00;99411.25;10340248;28;20486;-67
2023/01/09 07:49:14;;;;;;;1999.90;999.90;;;;;;;6.13;100.00;99417.75;10347067;28;20498;-67
2023/01/09 07:54:16;;;;;;;1999.90;999.90;;;;;;;6.10;100.00;99412.75;10332458;28;20050;-67
2023/01/09 07:59:18;;;;;;;1999.90;999.90;;;;;;;6.17;100.00;99422.75;10333455;28;20050;-67
2023/01/09 08:04:21;;;;;;;1999.90;999.90;;;;;;;6.27;100.00;99434.25;10329528;28;20378;-67
2023/01/09 08:09:24;;;;;;;1999.90;999.90;;;;;;;6.42;100.00;99433.34;10333346;28;20069;-67
2023/01/09 08:14:26;;;;;;;1999.90;999.90;;;;;;;6.28;100.00;99443.75;10331566;28;20057;-67
2023/01/09 08:19:29;;;;;;;1999.90;999.90;;;;;;;6.33;100.00;99444.28;10365708;28;20045;-67
2023/01/09 08:24:31;;;;;;;1999.90;999.90;;;;;;;6.49;100.00;99447.63;10335720;28;20061;-66
2023/01/09 08:29:34;;;;;;;1999.90;999.90;;;;;;;6.51;100.00;99463.13;10342093;28;20050;-67
2023/01/09 08:34:36;;;;;;;1999.90;999.90;;;;;;;6.56;100.00;99473.25;10349532;28;20449;-67
2023/01/09 08:39:38;;;;;;;1999.90;999.90;;;;;;;6.51;100.00;99479.56;10351458;28;20049;-67
2023/01/09 08:50:03;;;;;;;1999.90;999.90;;;;;;;6.50;100.00;99496.09;10337204;28;20520;-66
2023/01/09 08:55:06;;;;;;;1999.90;999.90;;;;;;;6.61;100.00;99500.63;10337957;28;20058;-66
2023/01/09 09:00:09;;;;;;;1999.90;999.90;;;;;;;6.70;100.00;99510.47;10337391;28;20409;-66
2023/01/09 09:05:12;;;;;;;1999.90;999.90;;;;;;;6.59;100.00;99515.50;10357066;28;20128;-67
2023/01/09 09:10:18;;;;;;;1999.90;999.90;;;;;;;6.58;100.00;99520.81;10356025;28;20046;-67
2023/01/09 09:15:25;;;;;;;1999.90;999.90;;;;;;;6.55;100.00;99539.19;10350811;28;20046;-67
2023/01/09 09:20:30;;;;;;;1999.90;999.90;;;;;;;6.42;100.00;99534.75;10349894;28;20062;-66
2023/01/09 09:25:32;;;;;;;1999.90;999.90;;;;;;;6.47;100.00;99537.91;10359076;28;20045;-66
2023/01/09 09:30:36;;;;;;;1999.90;999.90;;;;;;;6.42;100.00;99554.69;10378427;28;20053;-66
2023/01/09 09:35:38;;;;;;;1999.90;999.90;;;;;;;6.62;100.00;99553.47;10377489;28;20482;-67
2023/01/09 09:40:44;;;;;;;1999.90;999.90;;;;;;;6.47;100.00;99560.44;10343679;28;20050;-66
2023/01/09 09:45:47;;;;;;;1999.90;999.90;;;;;;;6.55;100.00;99573.81;10352579;28;20055;-66
2023/01/09 09:50:59;;;;;;;1999.90;999.90;;;;;;;6.58;100.00;99589.25;10336632;28;20050;-66
2023/01/09 09:56:01;;;;;;;1999.90;999.90;;;;;;;6.85;100.00;99598.91;10335246;28;20051;-67
2023/01/09 10:01:05;;;;;;;1999.90;999.90;;;;;;;6.94;100.00;99608.75;10351856;28;20092;-67
2023/01/09 10:06:17;;;;;;;1999.90;999.90;;;;;;;6.85;100.00;99617.13;10351069;28;20504;-66
2023/01/09 10:11:38;;;;;;;1999.90;999.90;;;;;;;7.10;100.00;99623.44;10336500;28;20054;-66
2023/01/09 10:17:19;;;;;;;1999.90;999.90;;;;;;;7.23;100.00;99630.38;10350571;28;20057;-67
2023/01/09 10:22:47;;;;;;;1999.90;999.90;;;;;;;7.19;100.00;99625.47;10330925;28;20061;-67
2023/01/09 10:28:25;;;;;;;1999.90;999.90;;;;;;;7.07;100.00;99625.28;10335077;28;20050;-66
2023/01/09 10:34:01;;;;;;;1999.90;999.90;;;;;;;7.11;100.00;99640.72;10334992;28;20413;-67
2023/01/09 10:39:09;;;;;;;1999.90;999.90;;;;;;;7.18;100.00;99644.63;10335333;28;20053;-67
2023/01/09 10:44:26;;;;;;;1999.90;999.90;;;;;;;7.49;100.00;99653.97;10350303;28;20109;-67
2023/01/09 10:49:28;;;;;;;1999.90;999.90;;;;;;;7.27;100.00;99654.47;10349545;28;20047;-67
2023/01/09 10:54:31;;;;;;;1999.90;999.90;;;;;;;7.82;100.00;99660.59;10333837;28;20494;-68
2023/01/09 10:59:35;;;;;;;1999.90;999.90;;;;;;;7.30;100.00;99666.47;10334661;28;20057;-67
2023/01/09 11:04:39;;;;;;;1999.90;999.90;;;;;;;7.56;100.00;99683.88;10353375;28;20057;-67
2023/01/09 11:09:57;;;;;;;1999.90;999.90;;;;;;;7.55;100.00;99691.81;10367299;28;20053;-67
2023/01/09 11:15:27;;;;;;;1999.90;999.90;;;;;;;7.49;100.00;99697.41;10334365;28;20101;-67
2023/01/09 11:20:30;;;;;;;1999.90;999.90;;;;;;;7.25;100.00;99698.00;10367014;28;20058;-67
2023/01/09 11:25:32;;;;;;;1999.90;999.90;;;;;;;7.07;100.00;99713.78;10372944;28;20401;-66
2023/01/09 11:30:36;;;;;;;1999.90;999.90;;;;;;;7.31;100.00;99715.00;10355429;28;20493;-67
2023/01/09 11:36:18;;;;;;;1999.90;999.90;;;;;;;7.15;100.00;99721.13;10331776;28;20046;-67
2023/01/09 11:41:26;;;;;;;1999.90;999.90;;;;;;;7.50;100.00;99727.72;10336061;28;20073;-64
2023/01/09 11:46:33;;;;;;;1999.90;999.90;;;;;;;7.31;100.00;99736.66;10331653;28;20061;-62
2023/01/09 11:51:35;;;;;;;1999.90;999.90;;;;;;;7.32;100.00;99727.91;10349139;28;20058;-63
2023/01/09 11:56:38;;;;;;;1999.90;999.90;;;;;;;7.58;100.00;99741.09;10319856;28;20065;-64
2023/01/09 12:01:52;;;;;;;1999.90;999.90;;;;;;;7.44;100.00;99734.97;10332329;28;20054;-66
2023/01/09 12:07:28;;;;;;;1999.90;999.90;;;;;;;7.97;100.00;99744.78;10339293;28;20537;-64
2023/01/09 12:12:33;;;;;;;1999.90;999.90;;;;;;;7.73;100.00;99740.19;10340500;28;20058;-64
2023/01/09 12:17:56;;;;;;;1999.90;999.90;;;;;;;7.68;100.00;99749.19;10340747;28;20069;-63
2023/01/09 12:23:19;;;;;;;1999.90;999.90;;;;;;;7.68;100.00;99746.59;10340947;28;20050;-63
2023/01/09 12:28:40;;;;;;;1999.90;999.90;;;;;;;7.64;100.00;99751.16;10339299;28;20555;-63
2023/01/09 12:33:51;;;;;;;1999.90;999.90;;;;;;;8.05;100.00;99747.69;10340303;28;20053;-63
2023/01/09 12:39:01;;;;;;;1999.90;999.90;;;;;;;8.42;100.00;99750.56;10337979;28;20425;-63
2023/01/09 12:44:40;;;;;;;1999.90;999.90;;;;;;;8.40;100.00;99764.66;10342581;28;20049;-63
2023/01/09 12:50:04;;;;;;;1999.90;999.90;;;;;;;8.29;100.00;99765.34;10370730;28;20046;-63
2023/01/09 12:55:23;;;;;;;1999.90;999.90;;;;;;;8.14;100.00;99783.63;10353921;28;20050;-64
2023/01/09 13:00:41;;;;;;;1999.90;999.90;;;;;;;7.81;100.00;99790.00;10338891;28;20050;-64
2023/01/09 13:05:52;;;;;;;1999.90;999.90;;;;;;;7.66;100.00;99790.97;10337651;28;20120;-64
2023/01/09 13:11:47;;;;;;;1999.90;999.90;;;;;;;7.76;100.00;99797.28;10337021;28;20405;-64
2023/01/09 13:16:51;;;;;;;1999.90;999.90;;;;;;;7.63;100.00;99823.28;10305870;28;20046;-64
2023/01/09 13:21:54;;;;;;;1999.90;999.90;;;;;;;7.80;100.00;99834.41;10337423;28;20058;-62
2023/01/09 13:27:04;;;;;;;1999.90;999.90;;;;;;;7.87;100.00;99842.69;10337639;28;20544;-62
2023/01/09 13:32:21;;;;;;;1999.90;999.90;;;;;;;7.73;100.00;99841.78;10367693;28;20172;-62
2023/01/09 13:37:35;;;;;;;1999.90;999.90;;;;;;;7.82;100.00;99848.22;10378127;28;20045;-62
2023/01/09 13:42:37;;;;;;;1999.90;999.90;;;;;;;7.68;100.00;99863.81;10376378;28;20499;-62
2023/01/09 13:47:40;;;;;;;1999.90;999.90;;;;;;;7.87;100.00;99858.31;10377976;28;20052;-63
2023/01/09 13:52:43;;;;;;;1999.90;999.90;;;;;;;7.61;100.00;99873.78;10376533;28;20108;-63
2023/01/09 13:58:07;;;;;;;1999.90;999.90;;;;;;;7.41;100.00;99883.63;10376322;28;20097;-62
2023/01/09 14:03:47;;;;;;;1999.90;999.90;;;;;;;7.06;100.00;99898.66;10376765;28;20129;-62
2023/01/09 14:09:23;;;;;;;1999.90;999.90;;;;;;;6.95;100.00;99906.25;10363688;28;20046;-64
2023/01/09 14:14:29;;;;;;;1999.90;999.90;;;;;;;6.67;100.00;99932.06;10376449;28;20057;-63
2023/01/09 14:19:36;;;;;;;1999.90;999.90;;;;;;;6.95;100.00;99945.28;10376706;28;20054;-64
2023/01/09 14:24:45;;;;;;;1999.90;999.90;;;;;;;6.94;100.00;99961.81;10363291;28;20046;-64
2023/01/09 14:29:47;;;;;;;1999.90;999.90;;;;;;;6.73;100.00;99964.69;10347801;28;20417;-63
2023/01/09 14:35:03;;;;;;;1999.90;999.90;;;;;;;6.76;100.00;99993.16;10342686;22;20053;-66
2023/01/09 14:40:06;;;;;;;1999.90;999.90;;;;;;;6.95;100.00;100003.38;10333313;28;20046;-67
2023/01/09 14:45:20;;;;;;;1999.90;999.90;;;;;;;6.98;100.00;100015.41;10331505;28;20481;-66
2023/01/09 14:50:43;;;;;;;1999.90;999.90;;;;;;;7.10;100.00;100017.31;10366185;28;20058;-66
2023/01/09 14:55:53;;;;;;;1999.90;999.90;;;;;;;7.35;100.00;100031.59;10334281;28;20061;-67
2023/01/09 15:01:06;;;;;;;1999.90;999.90;;;;;;;7.01;100.00;100044.69;10313942;28;20053;-69
2023/01/09 15:06:22;;;;;;;1999.90;999.90;;;;;;;6.91;100.00;100059.13;10334700;28;20057;-67
2023/01/09 15:11:25;;;;;;;1999.90;999.90;;;;;;;6.88;100.00;100072.31;10349548;28;20064;-67
2023/01/09 15:16:28;;;;;;;1999.90;999.90;;;;;;;7.04;100.00;100087.91;10333272;28;20050;-67
2023/01/09 15:21:31;;;;;;;1999.90;999.90;;;;;;;7.18;100.00;100092.41;10334197;28;20058;-67
2023/01/09 15:26:34;;;;;;;1999.90;999.90;;;;;;;6.98;100.00;100096.91;10333552;28;20046;-67
2023/01/09 15:31:43;;;;;;;1999.90;999.90;;;;;;;6.95;100.00;100106.66;10333550;28;20264;-67
2023/01/09 15:36:48;;;;;;;1999.90;999.90;;;;;;;6.84;100.00;100115.88;10332238;28;20061;-68
2023/01/09 15:47:21;;;;;;;1999.90;999.90;;;;;;;6.84;100.00;100130.63;10341467;28;20441;-68
2023/01/09 15:52:23;;;;;;;1999.90;999.90;;;;;;;6.69;100.00;100150.47;10340436;28;20485;-67
2023/01/09 15:57:26;;;;;;;1999.90;999.90;;;;;;;6.66;100.00;100161.88;10340478;28;20077;-68
2023/01/09 16:07:50;;;;;;;1999.90;999.90;;;;;;;6.73;100.00;100178.03;10341373;28;20053;-68
2023/01/09 16:12:53;;;;;;;1999.90;999.90;;;;;;;6.79;100.00;100172.50;10339985;28;20065;-69
2023/01/09 16:18:21;;;;;;;1999.90;999.90;;;;;;;6.69;100.00;100198.16;10340279;28;20117;-69
2023/01/09 16:23:30;;;;;;;1999.90;999.90;;;;;;;6.69;100.00;100213.75;10335301;28;20065;-68
2023/01/09 16:28:33;;;;;;;1999.90;999.90;;;;;;;6.79;100.00;100218.47;10338129;28;20125;-68
2023/01/09 16:33:37;;;;;;;1999.90;999.90;;;;;;;6.70;100.00;100212.81;10338855;28;20058;-68
2023/01/09 16:38:41;;;;;;;1999.90;999.90;;;;;;;6.54;100.00;100227.53;10337496;28;20050;-68
2023/01/09 16:43:44;;;;;;;1999.90;999.90;;;;;;;6.67;100.00;100248.56;10339126;28;20094;-68
2023/01/09 16:48:47;;;;;;;1999.90;999.90;;;;;;;6.56;100.00;100249.09;10337904;28;20046;-68
2023/01/09 16:53:50;;;;;;;1999.90;999.90;;;;;;;6.44;100.00;100254.88;10337715;28;20108;-68
2023/01/09 16:58:53;;;;;;;1999.90;999.90;;;;;;;6.44;100.00;100258.34;10338735;28;20478;-68
2023/01/09 17:03:55;;;;;;;1999.90;999.90;;;;;;;6.34;100.00;100270.13;10334983;28;20556;-68
2023/01/09 17:08:58;;;;;;;1999.90;999.90;;;;;;;6.49;100.00;100278.94;10338389;28;20042;-68
2023/01/09 17:14:01;;;;;;;1999.90;999.90;;;;;;;6.35;100.00;100278.75;10338899;28;20050;-68
2023/01/09 17:19:04;;;;;;;1999.90;999.90;;;;;;;6.41;100.00;100286.28;10337984;28;20058;-68
2023/01/09 17:29:29;;;;;;;1999.90;999.90;;;;;;;6.44;100.00;100307.78;10338641;28;20043;-68
2023/01/09 17:34:33;;;;;;;1999.90;999.90;;;;;;;6.50;100.00;100311.81;10336553;28;20054;-69
2023/01/09 17:39:35;;;;;;;1999.90;999.90;;;;;;;6.44;100.00;100318.16;10334294;28;20490;-68
2023/01/09 17:44:38;;;;;;;1999.90;999.90;;;;;;;6.17;100.00;100333.31;10336133;28;20568;-68
2023/01/09 17:49:41;;;;;;;1999.90;999.90;;;;;;;6.28;100.00;100348.41;10337484;28;20130;-68
2023/01/09 17:54:43;;;;;;;1999.90;999.90;;;;;;;6.44;100.00;100356.31;10337207;28;20054;-69
2023/01/09 17:59:45;;;;;;;1999.90;999.90;;;;;;;6.33;100.00;100368.06;10336401;28;20104;-69
2023/01/09 18:04:48;;;;;;;1999.90;999.90;;;;;;;6.32;100.00;100386.34;10335084;28;20054;-68
2023/01/09 18:09:50;;;;;;;1999.90;999.90;;;;;;;6.15;100.00;100384.50;10334243;28;20420;-68
2023/01/09 18:14:53;;;;;;;1999.90;999.90;;;;;;;6.31;100.00;100392.47;10336496;28;20050;-68
2023/01/09 18:19:55;;;;;;;1999.90;999.90;;;;;;;6.27;100.00;100411.69;10336360;28;20051;-67
2023/01/09 18:24:58;;;;;;;1999.90;999.90;;;;;;;5.86;100.00;100412.63;10334618;28;20113;-67
2023/01/09 18:30:00;;;;;;;1999.90;999.90;;;;;;;6.17;100.00;100433.84;10333753;28;20477;-67
2023/01/09 18:35:07;;;;;;;1999.90;999.90;;;;;;;5.93;100.00;100453.03;10334967;28;20058;-67
2023/01/09 18:40:10;;;;;;;1999.90;999.90;;;;;;;5.87;100.00;100470.63;10335458;28;20077;-67
2023/01/09 18:45:13;;;;;;;1999.90;999.90;;;;;;;5.94;100.00;100475.50;10334777;28;20056;-67
2023/01/09 18:50:15;;;;;;;1999.90;999.90;;;;;;;6.03;100.00;100491.63;10334070;28;20054;-69
2023/01/09 18:55:17;;;;;;;1999.90;999.90;;;;;;;5.99;100.00;100509.13;10334347;28;20058;-68
2023/01/09 19:00:20;;;;;;;1999.90;999.90;;;;;;;5.77;100.00;100506.56;10334024;28;20046;-67
2023/01/09 19:05:24;;;;;;;1999.90;999.90;;;;;;;5.83;100.00;100519.25;10334245;28;20058;-67
2023/01/09 19:10:27;;;;;;;1999.90;999.90;;;;;;;5.83;100.00;100529.66;10334638;28;20050;-67
2023/01/09 19:15:29;;;;;;;1999.90;999.90;;;;;;;5.88;100.00;100545.06;10334090;28;20058;-67
2023/01/09 19:20:32;;;;;;;1999.90;999.90;;;;;;;5.99;100.00;100553.28;10333137;28;20486;-67
2023/01/09 19:25:34;;;;;;;1999.90;999.90;;;;;;;5.99;100.00;100562.84;10331915;28;20406;-67
2023/01/09 19:30:36;;;;;;;1999.90;999.90;;;;;;;6.09;100.00;100574.56;10347419;28;20464;-68
2023/01/09 19:35:39;;;;;;;1999.90;999.90;;;;;;;5.97;100.00;100575.03;10332699;28;20054;-68
2023/01/09 19:40:41;;;;;;;1999.90;999.90;;;;;;;5.91;100.00;100586.50;10330127;28;20051;-69
2023/01/09 19:45:44;;;;;;;1999.90;999.90;;;;;;;5.84;100.00;100608.47;10332743;28;20088;-67
2023/01/09 19:50:46;;;;;;;1999.90;999.90;;;;;;;6.06;100.00;100618.84;10332934;28;20125;-68
2023/01/09 19:55:48;;;;;;;1999.90;999.90;;;;;;;6.03;100.00;100640.59;10333229;28;20096;-68
2023/01/09 20:00:51;;;;;;;1999.90;999.90;;;;;;;6.14;100.00;100637.59;10330986;28;20046;-68
2023/01/09 20:05:53;;;;;;;1999.90;999.90;;;;;;;6.34;100.00;100649.75;10330896;28;20047;-67
2023/01/09 20:10:55;;;;;;;1999.90;999.90;;;;;;;6.23;100.00;100667.56;10331752;28;20050;-67
2023/01/09 20:15:59;;;;;;;1999.90;999.90;;;;;;;6.35;100.00;100674.00;10332195;28;20069;-68
2023/01/09 20:21:02;;;;;;;1999.90;999.90;;;;;;;6.31;100.00;100692.31;10331504;28;20046;-67
2023/01/09 20:26:04;;;;;;;1999.90;999.90;;;;;;;6.25;100.00;100707.31;10334278;28;20076;-67
2023/01/09 20:31:09;;;;;;;1999.90;999.90;;;;;;;6.19;100.00;100715.38;10338008;28;20061;-65
2023/01/09 20:36:12;;;;;;;1999.90;999.90;;;;;;;6.04;100.00;100711.66;10355418;28;20555;-65
2023/01/09 20:41:22;;;;;;;1999.90;999.90;;;;;;;5.80;100.00;100719.47;10358061;28;20054;-66
2023/01/09 20:46:27;;;;;;;1999.90;999.90;;;;;;;5.75;100.00;100724.00;10336597;28;20441;-66
2023/01/09 20:51:30;;;;;;;1999.90;999.90;;;;;;;5.67;100.00;100724.28;10339676;28;20108;-66
2023/01/09 20:56:32;;;;;;;1999.90;999.90;;;;;;;5.65;100.00;100736.50;10339470;28;20054;-67
2023/01/09 21:01:35;;;;;;;1999.90;999.90;;;;;;;5.56;100.00;100748.06;10335570;28;20053;-66
2023/01/09 21:06:37;;;;;;;1999.90;999.90;;;;;;;5.53;100.00;100763.75;10335324;28;20105;-66
2023/01/09 21:11:40;;;;;;;1999.90;999.90;;;;;;;5.64;100.00;100767.72;10336542;28;20062;-67
2023/01/09 21:16:42;;;;;;;1999.90;999.90;;;;;;;5.56;100.00;100778.38;10338065;28;20410;-66
2023/01/09 21:21:54;;;;;;;1999.90;999.90;;;;;;;5.50;100.00;100789.00;10337905;28;20088;-65
2023/01/09 21:26:57;;;;;;;1999.90;999.90;;;;;;;5.61;100.00;100799.00;10334613;28;20399;-65
2023/01/09 21:31:59;;;;;;;1999.90;999.90;;;;;;;5.64;100.00;100806.69;10333646;28;20050;-66
2023/01/09 21:37:01;;;;;;;1999.90;999.90;;;;;;;5.69;100.00;100802.16;10336856;28;20061;-66
2023/01/09 21:47:24;;;;;;;1999.90;999.90;;;;;;;5.52;100.00;100813.16;10331441;28;20046;-66
2023/01/09 21:52:27;;;;;;;1999.90;999.90;;;;;;;5.41;100.00;100826.50;10331621;28;20051;-66
2023/01/09 21:57:29;;;;;;;1999.90;999.90;;;;;;;5.54;100.00;100827.78;10333930;28;20051;-66
2023/01/09 22:02:31;;;;;;;1999.90;999.90;;;;;;;5.34;100.00;100843.22;10329002;28;20054;-66
2023/01/09 22:07:34;;;;;;;1999.90;999.90;;;;;;;5.16;100.00;100857.66;10326075;28;20050;-66
2023/01/09 22:12:36;;;;;;;1999.90;999.90;;;;;;;5.17;100.00;100873.19;10332928;28;20568;-66
2023/01/09 22:17:39;;;;;;;1999.90;999.90;;;;;;;5.20;100.00;100890.44;10352152;28;20049;-66
2023/01/09 22:22:41;;;;;;;1999.90;999.90;;;;;;;5.16;100.00;100887.09;10364424;28;20113;-66
2023/01/09 22:27:43;;;;;;;1999.90;999.90;;;;;;;5.28;100.00;100898.81;10334420;28;20046;-66
2023/01/09 22:32:46;;;;;;;1999.90;999.90;;;;;;;4.98;100.00;100909.28;10335132;28;20046;-66
2023/01/09 22:37:48;;;;;;;1999.90;999.90;;;;;;;4.98;100.00;100918.84;10334723;28;20121;-66
2023/01/09 22:42:54;;;;;;;1999.90;999.90;;;;;;;4.94;100.00;100938.84;10334698;28;20047;-66
2023/01/09 22:47:56;;;;;;;1999.90;999.90;;;;;;;4.99;100.00;100951.66;10333166;28;20073;-67
2023/01/09 22:52:59;;;;;;;1999.90;999.90;;;;;;;5.06;100.00;100952.31;10333964;28;20058;-66